Global Glory — 3FHR8 — position and weather

sailwx.info

Track history (hours):
 
Tides and Currents Weather Stations Pressure Air Temp Water Temp Dewpoint Dewpoint Depression Visibility Wind Speed Wind Dir Waves Ship Positions

Global Glory

Last reported at 2017-May-20 03:29 UTC. Time now 2017-Nov-18 10:17 UTC.
Position N 31°55' E 122°43'.
Warning: this ship's position is months out of date.

Length 189 m; draft 6.3 m.

Type: Cargo ship. MMSI: 354338000.

Date/timePositionNaut miles runAvg speedWind from/ knotsBaromVisibWave heightAir tempDewpointWater temp
2017-May-20 03:29N 31°55' E 122°43'2112.6
2017-May-20 01:50N 31°35' E 122°38'513.1
2017-May-20 01:29N 31°30' E 122°37'613.2
2017-May-20 01:00N 31°24' E 122°35'713.5
2017-May-20 00:30N 31°18' E 122°34'813.8
2017-May-19 23:57N 31°10' E 122°33'613.9
2017-May-19 23:30N 31°04' E 122°33'6 8.4
2017-May-19 22:49N 31°00' E 122°28'411.9
2017-May-19 22:30N 31°01' E 122°23'611.3
2017-May-19 22:00N 31°02' E 122°17'5 9.5
2017-May-19 21:30N 31°03' E 122°11'510.1
2017-May-19 21:00N 31°04' E 122°06'510.0
2017-May-19 20:30N 31°05' E 122°00'5 9.5
2017-May-19 20:00N 31°08' E 121°55'5 9.7
2017-May-19 19:30N 31°11' E 121°51'510.5
2017-May-19 19:00N 31°15' E 121°47'611.1
2017-May-19 18:30N 31°19' E 121°42'611.3
2017-May-19 18:00N 31°22' E 121°37'611.8
2017-May-19 17:30N 31°25' E 121°31'610.9
2017-May-19 17:00N 31°29' E 121°26'612.3
2017-May-19 16:30N 31°32' E 121°21'612.9
2017-May-19 16:00N 31°37' E 121°16'713.7
2017-May-19 15:30N 31°42' E 121°09'812.9
2017-May-19 14:55N 31°46' E 121°02'3310.1
2017-May-19 11:38N 32°02' E 120°28'  
2017-May-16 19:25N 32°02' E 120°27'6 8.0
2017-May-16 18:43N 32°01' E 120°33'12 7.1
2017-May-16 17:01N 32°01' E 120°47'1 8.0
2017-May-16 16:54N 32°00' E 120°48'10 7.9
2017-May-16 15:39N 31°51' E 120°54'1 7.5
2017-May-16 15:30N 31°50' E 120°54'5 7.4
2017-May-16 14:49N 31°47' E 120°58'9 7.7
2017-May-16 13:36N 31°43' E 121°08'1 8.3
2017-May-16 13:30N 31°42' E 121°09'4 8.5
2017-May-16 13:00N 31°40' E 121°13'4 8.6
2017-May-16 12:30N 31°37' E 121°17'4 8.8
2017-May-16 12:00N 31°33' E 121°20'5 9.0
2017-May-16 11:30N 31°31' E 121°24'4 8.9
2017-May-16 11:00N 31°28' E 121°28'4 8.5
2017-May-16 10:30N 31°25' E 121°32'5 9.7
2017-May-16 10:00N 31°23' E 121°36'5 9.4
2017-May-16 09:30N 31°20' E 121°41'5 9.2
2017-May-16 09:00N 31°18' E 121°46'510.1
2017-May-16 08:30N 31°16' E 121°52'510.4
2017-May-16 08:00N 31°15' E 121°58'510.4
2017-May-16 07:30N 31°14' E 122°04'5 9.8
2017-May-16 07:00N 31°12' E 122°09'5 9.3
2017-May-16 06:30N 31°09' E 122°13'611.2
2017-May-16 06:00N 31°06' E 122°19'5 9.9
2017-May-16 05:30N 31°07' E 122°25'16 3.2
2017-May-16 00:27N 31°08' E 122°43'0 0.0
2017-May-16 00:00N 31°08' E 122°43'0 0.1
2017-May-15 23:30N 31°08' E 122°43'0 0.0
2017-May-15 23:00N 31°08' E 122°43'0 0.0
2017-May-15 22:30N 31°08' E 122°43'0 0.3
2017-May-15 22:00N 31°08' E 122°44'3 5.5
2017-May-15 21:30N 31°06' E 122°46'3 5.4
2017-May-15 21:00N 31°05' E 122°49'3 5.6
2017-May-15 20:30N 31°03' E 122°51'3 6.1
2017-May-15 20:00N 31°00' E 122°53'3 6.3
2017-May-15 19:30N 30°57' E 122°55'3 6.8
2017-May-15 19:00N 30°54' E 122°55'3 7.0
2017-May-15 18:30N 30°51' E 122°55'4 7.2
2017-May-15 18:00N 30°47' E 122°56'3 6.7
2017-May-15 17:30N 30°44' E 122°57'4 7.2
2017-May-15 17:00N 30°40' E 122°57'510.5
2017-May-15 16:30N 30°35' E 122°58'611.9
2017-May-15 16:00N 30°29' E 122°59'612.6
2017-May-15 15:30N 30°23' E 123°00'712.4
2017-May-15 14:57N 30°16' E 123°01'511.8
2017-May-15 14:30N 30°11' E 123°01'5310.9
2017-May-15 09:38N 29°22' E 122°38'110.7
2017-May-15 09:30N 29°20' E 122°37'41411.6
2017-May-13 21:52N 22°52' E 119°56'410.8
2017-May-13 21:30N 22°48' E 119°56'511.0
2017-May-13 21:00N 22°43' E 119°56'610.9
2017-May-13 20:30N 22°37' E 119°56'511.0
2017-May-13 20:00N 22°32' E 119°56'511.0
2017-May-13 19:30N 22°26' E 119°55'610.8
2017-May-13 19:00N 22°21' E 119°55'611.1
2017-May-13 18:29N 22°15' E 119°55'511.4
2017-May-13 18:00N 22°10' E 119°55'611.9
2017-May-13 17:30N 22°04' E 119°55'611.7
2017-May-13 17:00N 21°58' E 119°55'611.7
2017-May-13 16:30N 21°52' E 119°54'  
Track history (hours):
 
Tides and Currents Weather Stations Pressure Air Temp Water Temp Dewpoint Dewpoint Depression Visibility Wind Speed Wind Dir Waves Ship Positions

Global Glory

Last reported at 2017-May-20 03:29 UTC. Time now 2017-Nov-18 10:17 UTC.
Position N 31°55' E 122°43'.
Warning: this ship's position is months out of date.

Length 189 m; draft 6.3 m.

Type: Cargo ship. MMSI: 354338000.

Date/timePositionNaut miles runAvg speedWind from/ knotsBaromVisibWave heightAir tempDewpointWater temp
2017-May-20 03:29N 31°55' E 122°43'2112.6
2017-May-20 01:50N 31°35' E 122°38'513.1
2017-May-20 01:29N 31°30' E 122°37'613.2
2017-May-20 01:00N 31°24' E 122°35'713.5
2017-May-20 00:30N 31°18' E 122°34'813.8
2017-May-19 23:57N 31°10' E 122°33'613.9
2017-May-19 23:30N 31°04' E 122°33'6 8.4
2017-May-19 22:49N 31°00' E 122°28'411.9
2017-May-19 22:30N 31°01' E 122°23'611.3
2017-May-19 22:00N 31°02' E 122°17'5 9.5
2017-May-19 21:30N 31°03' E 122°11'510.1
2017-May-19 21:00N 31°04' E 122°06'510.0
2017-May-19 20:30N 31°05' E 122°00'5 9.5
2017-May-19 20:00N 31°08' E 121°55'5 9.7
2017-May-19 19:30N 31°11' E 121°51'510.5
2017-May-19 19:00N 31°15' E 121°47'611.1
2017-May-19 18:30N 31°19' E 121°42'611.3
2017-May-19 18:00N 31°22' E 121°37'611.8
2017-May-19 17:30N 31°25' E 121°31'610.9
2017-May-19 17:00N 31°29' E 121°26'612.3
2017-May-19 16:30N 31°32' E 121°21'612.9
2017-May-19 16:00N 31°37' E 121°16'713.7
2017-May-19 15:30N 31°42' E 121°09'812.9
2017-May-19 14:55N 31°46' E 121°02'3310.1
2017-May-19 11:38N 32°02' E 120°28'  
2017-May-16 19:25N 32°02' E 120°27'6 8.0
2017-May-16 18:43N 32°01' E 120°33'12 7.1
2017-May-16 17:01N 32°01' E 120°47'1 8.0
2017-May-16 16:54N 32°00' E 120°48'10 7.9
2017-May-16 15:39N 31°51' E 120°54'1 7.5
2017-May-16 15:30N 31°50' E 120°54'5 7.4
2017-May-16 14:49N 31°47' E 120°58'9 7.7
2017-May-16 13:36N 31°43' E 121°08'1 8.3
2017-May-16 13:30N 31°42' E 121°09'4 8.5
2017-May-16 13:00N 31°40' E 121°13'4 8.6
2017-May-16 12:30N 31°37' E 121°17'4 8.8
2017-May-16 12:00N 31°33' E 121°20'5 9.0
2017-May-16 11:30N 31°31' E 121°24'4 8.9
2017-May-16 11:00N 31°28' E 121°28'4 8.5
2017-May-16 10:30N 31°25' E 121°32'5 9.7
2017-May-16 10:00N 31°23' E 121°36'5 9.4
2017-May-16 09:30N 31°20' E 121°41'5 9.2
2017-May-16 09:00N 31°18' E 121°46'510.1
2017-May-16 08:30N 31°16' E 121°52'510.4
2017-May-16 08:00N 31°15' E 121°58'510.4
2017-May-16 07:30N 31°14' E 122°04'5 9.8
2017-May-16 07:00N 31°12' E 122°09'5 9.3
2017-May-16 06:30N 31°09' E 122°13'611.2
2017-May-16 06:00N 31°06' E 122°19'5 9.9
2017-May-16 05:30N 31°07' E 122°25'16 3.2
2017-May-16 00:27N 31°08' E 122°43'0 0.0
2017-May-16 00:00N 31°08' E 122°43'0 0.1
2017-May-15 23:30N 31°08' E 122°43'0 0.0
2017-May-15 23:00N 31°08' E 122°43'0 0.0
2017-May-15 22:30N 31°08' E 122°43'0 0.3
2017-May-15 22:00N 31°08' E 122°44'3 5.5
2017-May-15 21:30N 31°06' E 122°46'3 5.4
2017-May-15 21:00N 31°05' E 122°49'3 5.6
2017-May-15 20:30N 31°03' E 122°51'3 6.1
2017-May-15 20:00N 31°00' E 122°53'3 6.3
2017-May-15 19:30N 30°57' E 122°55'3 6.8
2017-May-15 19:00N 30°54' E 122°55'3 7.0
2017-May-15 18:30N 30°51' E 122°55'4 7.2
2017-May-15 18:00N 30°47' E 122°56'3 6.7
2017-May-15 17:30N 30°44' E 122°57'4 7.2
2017-May-15 17:00N 30°40' E 122°57'510.5
2017-May-15 16:30N 30°35' E 122°58'611.9
2017-May-15 16:00N 30°29' E 122°59'612.6
2017-May-15 15:30N 30°23' E 123°00'712.4
2017-May-15 14:57N 30°16' E 123°01'511.8
2017-May-15 14:30N 30°11' E 123°01'5310.9
2017-May-15 09:38N 29°22' E 122°38'110.7
2017-May-15 09:30N 29°20' E 122°37'41411.6
2017-May-13 21:52N 22°52' E 119°56'410.8
2017-May-13 21:30N 22°48' E 119°56'511.0
2017-May-13 21:00N 22°43' E 119°56'610.9
2017-May-13 20:30N 22°37' E 119°56'511.0
2017-May-13 20:00N 22°32' E 119°56'511.0
2017-May-13 19:30N 22°26' E 119°55'610.8
2017-May-13 19:00N 22°21' E 119°55'611.1
2017-May-13 18:29N 22°15' E 119°55'511.4
2017-May-13 18:00N 22°10' E 119°55'611.9
2017-May-13 17:30N 22°04' E 119°55'611.7
2017-May-13 17:00N 21°58' E 119°55'611.7
2017-May-13 16:30N 21°52' E 119°54'  

Dump ship's entire track history